createdAt,value
2023-02-11T00:02:48.114Z,45.92
2023-02-11T00:05:33.242Z,50.70
2023-02-11T00:08:06.017Z,41.53
2023-02-11T00:10:46.863Z,53.05
2023-02-11T00:13:33.496Z,61.72
2023-02-11T00:16:09.443Z,46.70
2023-02-11T00:18:42.324Z,41.50
2023-02-11T00:21:22.771Z,36.08
2023-02-11T00:24:00.258Z,42.22
2023-02-11T00:26:35.978Z,41.17
2023-02-11T00:29:11.725Z,44.15
2023-02-11T00:31:42.496Z,39.00
2023-02-11T00:34:11.569Z,40.45
2023-02-11T00:36:40.631Z,50.30
2023-02-11T00:39:15.933Z,44.97
2023-02-11T00:41:48.785Z,50.97
2023-02-11T00:44:18.423Z,49.88
2023-02-11T00:46:51.933Z,49.35
2023-02-11T00:49:26.926Z,55.08
2023-02-11T00:52:04.789Z,43.40
2023-02-11T00:54:42.500Z,51.17
2023-02-11T00:57:14.118Z,43.38
2023-02-11T00:59:42.798Z,51.63
2023-02-11T01:02:23.987Z,53.63
2023-02-11T01:07:57.980Z,51.25
2023-02-11T01:10:27.025Z,50.67
2023-02-11T01:13:11.398Z,45.08
2023-02-11T01:16:01.418Z,44.03
2023-02-11T01:18:40.493Z,37.90
2023-02-11T01:21:19.288Z,50.90
2023-02-11T01:23:58.374Z,47.63
2023-02-11T01:26:53.398Z,46.58
2023-02-11T01:29:44.813Z,48.83
2023-02-11T01:32:22.074Z,46.95
2023-02-11T01:35:13.333Z,50.17
2023-02-11T01:37:58.014Z,48.35
2023-02-11T01:40:30.088Z,49.22
2023-02-11T01:43:02.178Z,51.17
2023-02-11T01:46:05.625Z,44.30
2023-02-11T01:52:16.352Z,51.35
2023-02-11T01:55:33.176Z,49.53
2023-02-11T01:58:12.017Z,47.05
2023-02-11T02:00:55.948Z,46.97
2023-02-11T02:03:50.554Z,47.33
2023-02-11T02:06:43.998Z,43.72
2023-02-11T02:09:40.473Z,46.75
2023-02-11T02:12:34.545Z,45.17
2023-02-11T02:15:30.720Z,41.65
2023-02-11T02:18:36.118Z,48.63
2023-02-11T02:22:01.267Z,45.10
2023-02-11T02:28:38.807Z,39.15
2023-02-11T02:31:42.392Z,44.08
2023-02-11T02:34:44.272Z,42.15
2023-02-11T02:37:57.665Z,45.05
2023-02-11T02:41:05.391Z,46.40
2023-02-11T02:43:56.127Z,38.83
2023-02-11T02:46:29.622Z,41.50
2023-02-11T02:49:07.930Z,40.75
2023-02-11T02:52:09.075Z,41.15
2023-02-11T02:55:04.253Z,51.10
2023-02-11T02:57:48.543Z,45.78
2023-02-11T03:00:29.787Z,44.40
2023-02-11T03:03:17.161Z,45.38
2023-02-11T03:05:54.139Z,41.33
2023-02-11T03:08:55.068Z,46.53
2023-02-11T03:11:38.625Z,36.22
2023-02-11T03:14:10.085Z,37.88
2023-02-11T03:16:41.703Z,41.38
2023-02-11T03:19:15.088Z,43.88
2023-02-11T03:22:04.939Z,44.58
2023-02-11T03:25:04.277Z,39.83
2023-02-11T03:28:05.994Z,43.25
2023-02-11T03:30:54.766Z,39.65
2023-02-11T03:34:01.244Z,38.05
2023-02-11T03:36:54.239Z,41.25
2023-02-11T03:39:30.425Z,41.63
2023-02-11T03:42:06.060Z,41.58
2023-02-11T03:44:43.454Z,43.75
2023-02-11T03:47:18.156Z,46.10
2023-02-11T03:49:49.418Z,38.53
2023-02-11T03:52:21.765Z,43.05
2023-02-11T03:54:55.157Z,44.67
2023-02-11T03:57:26.425Z,42.05
2023-02-11T04:00:54.912Z,41.30
2023-02-11T04:03:26.607Z,46.75
2023-02-11T04:06:01.711Z,44.65
2023-02-11T04:08:37.304Z,45.67
2023-02-11T04:11:05.771Z,42.05
2023-02-11T04:13:35.140Z,42.95
2023-02-11T04:16:05.434Z,39.08
2023-02-11T04:18:34.005Z,41.30
2023-02-11T04:21:02.535Z,36.22
2023-02-11T04:23:32.109Z,40.78
2023-02-11T04:26:04.122Z,42.78
2023-02-11T04:28:32.915Z,44.08
2023-02-11T04:31:05.883Z,41.13
2023-02-11T04:33:34.358Z,43.90
2023-02-11T04:36:03.113Z,43.88
2023-02-11T04:38:31.866Z,41.67
2023-02-11T04:41:01.458Z,41.67
2023-02-11T04:43:29.856Z,36.78
2023-02-11T04:46:02.766Z,40.85
2023-02-11T04:48:43.945Z,39.13
2023-02-11T04:51:12.520Z,38.90
2023-02-11T04:53:41.581Z,42.28
2023-02-11T04:56:14.612Z,43.58
2023-02-11T04:58:46.164Z,38.10
2023-02-11T05:01:19.815Z,47.42
2023-02-11T05:03:53.506Z,46.00
2023-02-11T05:06:36.100Z,42.90
2023-02-11T05:09:21.872Z,54.30
2023-02-11T05:12:04.256Z,55.05
2023-02-11T05:14:36.141Z,40.55
2023-02-11T05:17:25.765Z,46.50
2023-02-11T05:20:18.817Z,52.42
2023-02-11T05:22:47.829Z,52.55
2023-02-11T05:25:23.280Z,47.42
2023-02-11T05:27:59.128Z,49.92
2023-02-11T05:30:42.830Z,47.22
2023-02-11T05:33:19.889Z,51.15
2023-02-11T05:35:56.231Z,48.65
2023-02-11T05:38:33.726Z,46.20
2023-02-11T05:41:16.449Z,47.92
2023-02-11T05:43:58.192Z,54.30
2023-02-11T05:46:35.759Z,54.05
2023-02-11T05:49:44.904Z,53.03
2023-02-11T05:53:01.449Z,50.72
2023-02-11T05:55:49.237Z,60.60
2023-02-11T05:58:21.248Z,59.97
2023-02-11T06:00:55.554Z,53.65
2023-02-11T06:03:24.764Z,53.38
2023-02-11T06:05:56.549Z,50.22
2023-02-11T06:08:43.975Z,52.60
2023-02-11T06:11:17.228Z,50.58
2023-02-11T06:13:52.113Z,57.50
2023-02-11T06:16:23.743Z,53.63
2023-02-11T06:18:58.785Z,57.53
2023-02-11T06:21:43.464Z,44.78
2023-02-11T06:24:38.377Z,55.88
2023-02-11T06:27:18.290Z,47.72
2023-02-11T06:29:55.595Z,52.05
2023-02-11T06:32:43.212Z,54.95
2023-02-11T06:35:12.891Z,54.85
2023-02-11T06:37:43.594Z,58.25
2023-02-11T06:40:16.953Z,59.40
2023-02-11T06:42:45.770Z,65.90
2023-02-11T06:45:18.380Z,56.20
2023-02-11T06:47:58.746Z,63.33
2023-02-11T06:50:38.780Z,64.15
2023-02-11T06:53:48.645Z,67.25
2023-02-11T06:56:58.732Z,61.22
2023-02-11T06:59:33.028Z,70.45
2023-02-11T07:02:01.719Z,55.92
2023-02-11T07:04:30.914Z,68.85
2023-02-11T07:06:59.366Z,56.22
2023-02-11T07:09:27.745Z,61.97
2023-02-11T07:11:57.869Z,57.85
2023-02-11T07:14:31.815Z,67.32
2023-02-11T07:17:06.576Z,67.57
2023-02-11T07:19:40.849Z,65.93
2023-02-11T07:22:13.101Z,68.63
2023-02-11T07:24:41.957Z,58.67
2023-02-11T07:27:36.143Z,52.28
2023-02-11T07:30:15.672Z,61.28
2023-02-11T07:32:44.295Z,67.00
2023-02-11T07:35:12.975Z,62.50
2023-02-11T07:37:41.665Z,65.25
2023-02-11T07:40:13.594Z,58.90
2023-02-11T07:42:43.517Z,64.85
2023-02-11T07:45:20.033Z,56.40
2023-02-11T07:47:54.440Z,61.45
2023-02-11T07:50:23.304Z,59.90
2023-02-11T07:52:57.590Z,66.32
2023-02-11T07:55:28.632Z,64.18
2023-02-11T07:57:59.345Z,56.92
2023-02-11T08:00:58.462Z,53.97
2023-02-11T08:03:27.925Z,60.78
2023-02-11T08:05:59.612Z,63.35
2023-02-11T08:08:54.569Z,60.97
2023-02-11T08:11:25.093Z,57.38
2023-02-11T08:14:01.890Z,57.92
2023-02-11T08:16:32.984Z,60.92
2023-02-11T08:19:09.904Z,51.25
2023-02-11T08:21:42.406Z,52.05
2023-02-11T08:24:11.932Z,55.85
2023-02-11T08:26:41.072Z,48.20
2023-02-11T08:29:13.319Z,48.30
2023-02-11T08:31:48.234Z,54.30
2023-02-11T08:34:21.837Z,59.75
2023-02-11T08:36:50.721Z,54.45
2023-02-11T08:39:21.763Z,57.70
2023-02-11T08:41:54.369Z,56.88
2023-02-11T08:44:25.613Z,50.88
2023-02-11T08:46:57.078Z,51.65
2023-02-11T08:49:25.631Z,60.38
2023-02-11T08:51:59.521Z,51.95
2023-02-11T08:54:27.833Z,47.92
2023-02-11T08:56:56.601Z,46.75
2023-02-11T08:59:30.088Z,51.40
2023-02-11T09:01:59.569Z,49.97
2023-02-11T09:04:28.312Z,50.38
2023-02-11T09:06:59.923Z,47.35
2023-02-11T09:09:30.682Z,46.30
2023-02-11T09:12:04.022Z,59.75
2023-02-11T09:14:34.115Z,56.88
2023-02-11T09:17:04.589Z,50.33
2023-02-11T09:19:38.723Z,53.20
2023-02-11T09:25:14.599Z,54.08
2023-02-11T09:27:45.233Z,46.83
2023-02-11T09:30:15.671Z,48.17
2023-02-11T09:32:44.295Z,50.33
2023-02-11T09:35:12.647Z,52.25
2023-02-11T09:37:45.107Z,52.35
2023-02-11T09:40:28.754Z,52.08
2023-02-11T09:43:05.278Z,53.25
2023-02-11T09:45:36.061Z,47.83
2023-02-11T09:48:12.426Z,54.70
2023-02-11T09:50:46.711Z,52.90
2023-02-11T09:53:23.923Z,57.63
2023-02-11T09:55:56.414Z,56.10
2023-02-11T09:58:33.332Z,53.53
2023-02-11T10:01:21.742Z,50.22
2023-02-11T10:04:15.462Z,51.20
2023-02-11T10:06:46.658Z,52.50
2023-02-11T10:09:46.871Z,50.22
2023-02-11T10:12:33.534Z,48.28
2023-02-11T10:15:16.461Z,50.10
2023-02-11T10:18:02.921Z,51.13
2023-02-11T10:20:39.053Z,50.55
2023-02-11T10:23:22.538Z,48.13
2023-02-11T10:26:03.386Z,56.50
2023-02-11T10:28:39.169Z,52.35
2023-02-11T10:31:15.249Z,55.40
2023-02-11T10:33:57.253Z,50.28
2023-02-11T10:36:31.035Z,57.20
2023-02-11T10:39:11.258Z,49.92
2023-02-11T10:41:47.206Z,59.70
2023-02-11T10:44:27.013Z,47.72
2023-02-11T10:46:55.959Z,55.75
2023-02-11T10:49:43.421Z,50.03
2023-02-11T10:52:23.866Z,51.03
2023-02-11T10:55:03.543Z,53.25
2023-02-11T10:57:37.595Z,44.85
2023-02-11T11:00:25.184Z,46.80
2023-02-11T11:03:02.313Z,45.80
2023-02-11T11:05:35.620Z,52.92
2023-02-11T11:08:09.432Z,52.30
2023-02-11T11:10:43.665Z,45.25
2023-02-11T11:13:30.592Z,52.03
2023-02-11T11:16:24.060Z,45.55
2023-02-11T11:18:58.726Z,43.53
2023-02-11T11:21:36.698Z,48.92
2023-02-11T11:24:05.972Z,42.83
2023-02-11T11:26:43.788Z,46.75
2023-02-11T11:29:17.488Z,47.55
2023-02-11T11:31:52.386Z,51.67
2023-02-11T11:34:29.926Z,48.35
2023-02-11T11:37:03.842Z,43.30
2023-02-11T11:39:37.302Z,41.30
2023-02-11T11:42:23.362Z,42.53
2023-02-11T11:44:59.638Z,40.47
2023-02-11T11:47:34.738Z,45.65
2023-02-11T11:50:28.382Z,45.75
2023-02-11T11:53:08.095Z,43.00
2023-02-11T11:55:45.410Z,48.85
2023-02-11T11:58:18.212Z,47.28
2023-02-11T12:00:55.687Z,43.97
2023-02-11T12:04:02.838Z,48.70
2023-02-11T12:06:46.360Z,47.83
2023-02-11T12:09:31.230Z,52.35
2023-02-11T12:12:18.996Z,51.17
2023-02-11T12:15:03.622Z,52.78
2023-02-11T12:18:05.325Z,48.60
2023-02-11T12:20:54.082Z,48.10
2023-02-11T12:23:37.212Z,49.53
2023-02-11T12:26:21.179Z,47.65
2023-02-11T12:29:09.509Z,51.88
2023-02-11T12:32:10.692Z,46.28
2023-02-11T12:38:44.254Z,57.95
2023-02-11T12:42:11.634Z,46.97
2023-02-11T12:45:05.396Z,48.17
2023-02-11T12:47:44.090Z,44.80
2023-02-11T12:50:31.613Z,50.38
2023-02-11T12:53:33.100Z,52.75
2023-02-11T12:56:18.611Z,47.42
2023-02-11T12:58:58.615Z,48.63
2023-02-11T13:01:44.292Z,48.65
2023-02-11T13:04:30.162Z,41.33
2023-02-11T13:07:08.603Z,54.78
2023-02-11T13:09:52.714Z,45.28
2023-02-11T13:12:53.181Z,50.28
2023-02-11T13:15:37.051Z,44.22
2023-02-11T13:18:20.696Z,42.08
2023-02-11T13:21:37.215Z,53.47
2023-02-11T13:24:30.204Z,49.63
2023-02-11T13:27:10.747Z,50.22
2023-02-11T13:30:06.640Z,43.70
2023-02-11T13:33:52.750Z,48.08
2023-02-11T13:36:25.238Z,51.30
2023-02-11T13:39:03.257Z,45.88
2023-02-11T13:41:41.311Z,61.22
2023-02-11T13:44:29.851Z,58.13
2023-02-11T13:47:07.011Z,54.65
2023-02-11T13:49:54.076Z,51.38
2023-02-11T13:52:27.132Z,51.50
2023-02-11T13:54:59.913Z,45.28
2023-02-11T13:57:33.718Z,44.92
2023-02-11T14:00:16.329Z,54.40
2023-02-11T14:07:04.533Z,49.78
2023-02-11T14:09:49.058Z,49.97
2023-02-11T14:12:36.250Z,48.45
2023-02-11T14:15:23.185Z,45.88
2023-02-11T14:18:08.445Z,47.03
2023-02-11T14:20:58.384Z,51.28
2023-02-11T14:23:43.935Z,45.40
2023-02-11T14:26:33.516Z,43.00
2023-02-11T14:29:15.706Z,50.05
2023-02-11T14:31:57.242Z,47.78
2023-02-11T14:34:48.577Z,45.03
2023-02-11T14:37:53.795Z,40.78
2023-02-11T14:40:39.497Z,49.05
2023-02-11T14:43:15.314Z,52.95
2023-02-11T14:45:55.426Z,46.72
2023-02-11T14:48:32.879Z,48.03
2023-02-11T14:51:09.776Z,56.40
2023-02-11T14:53:55.930Z,63.00
2023-02-11T14:56:31.968Z,46.35
2023-02-11T14:59:30.062Z,55.78
2023-02-11T15:02:05.307Z,53.08
2023-02-11T15:04:51.558Z,47.50
2023-02-11T15:07:26.447Z,61.90
2023-02-11T15:09:58.863Z,52.47
2023-02-11T15:12:32.651Z,51.63
2023-02-11T15:15:06.040Z,47.10
2023-02-11T15:17:54.223Z,55.75
2023-02-11T15:20:31.320Z,51.03
2023-02-11T15:23:07.963Z,53.28
2023-02-11T15:25:48.352Z,47.92
2023-02-11T15:28:36.515Z,44.65
2023-02-11T15:31:35.285Z,47.65
2023-02-11T15:34:39.308Z,47.15
2023-02-11T15:37:11.432Z,42.17
2023-02-11T15:39:42.313Z,48.90
2023-02-11T15:42:50.744Z,49.30
2023-02-11T15:45:51.049Z,48.92
2023-02-11T15:48:27.602Z,46.67
2023-02-11T15:51:09.712Z,55.97
2023-02-11T15:53:42.679Z,48.42
2023-02-11T15:56:19.821Z,47.05
2023-02-11T15:59:05.195Z,56.72
2023-02-11T16:01:45.965Z,46.35
2023-02-11T16:04:22.389Z,43.08
2023-02-11T16:06:55.030Z,52.63
2023-02-11T16:09:30.825Z,51.40
2023-02-11T16:12:08.018Z,46.05
2023-02-11T16:14:49.235Z,51.60
2023-02-11T16:17:42.159Z,51.13
2023-02-11T16:20:20.194Z,47.92
2023-02-11T16:22:56.607Z,44.17
2023-02-11T16:25:36.896Z,48.33
2023-02-11T16:28:19.824Z,43.38
2023-02-11T16:30:54.953Z,47.80
2023-02-11T16:33:25.296Z,55.05
2023-02-11T16:36:07.737Z,50.45
2023-02-11T16:38:57.494Z,48.05
2023-02-11T16:44:14.753Z,39.15
2023-02-11T16:46:46.969Z,43.15
2023-02-11T16:49:25.284Z,40.15
2023-02-11T16:51:59.043Z,39.25
2023-02-11T16:54:37.845Z,43.45
2023-02-11T16:57:13.096Z,44.22
2023-02-11T16:59:44.990Z,47.03
2023-02-11T17:02:23.959Z,43.97
2023-02-11T17:05:10.967Z,44.65
2023-02-11T17:07:51.962Z,42.17
2023-02-11T17:10:28.483Z,39.35
2023-02-11T17:13:14.044Z,45.83
2023-02-11T17:15:48.693Z,39.45
2023-02-11T17:18:20.283Z,38.45
2023-02-11T17:20:56.090Z,41.63
2023-02-11T17:23:30.828Z,37.88
2023-02-11T17:26:11.340Z,38.90
2023-02-11T17:28:50.264Z,43.30
2023-02-11T17:31:21.872Z,40.22
2023-02-11T17:33:52.811Z,36.35
2023-02-11T17:36:31.816Z,37.88
2023-02-11T17:39:08.161Z,32.17
2023-02-11T17:41:44.400Z,33.10
2023-02-11T17:44:17.096Z,31.27
2023-02-11T17:46:46.121Z,34.47
2023-02-11T17:49:26.786Z,32.03
2023-02-11T17:52:08.107Z,30.90
2023-02-11T17:54:40.168Z,33.88
2023-02-11T17:57:15.485Z,30.27
2023-02-11T17:59:50.638Z,30.30
2023-02-11T18:02:46.913Z,33.15
2023-02-11T18:05:28.474Z,28.35
2023-02-11T18:08:05.170Z,27.48
2023-02-11T18:10:39.757Z,30.35
2023-02-11T18:13:21.280Z,25.85
2023-02-11T18:16:16.153Z,26.40
2023-02-11T18:18:56.524Z,22.67
2023-02-11T18:21:34.927Z,28.02
2023-02-11T18:24:07.805Z,27.30
2023-02-11T18:26:36.474Z,25.63
2023-02-11T18:29:07.079Z,24.38
2023-02-11T18:31:39.575Z,28.65
2023-02-11T18:34:14.158Z,24.80
2023-02-11T18:36:49.376Z,22.48
2023-02-11T18:39:20.139Z,22.20
2023-02-11T18:41:54.636Z,25.58
2023-02-11T18:44:30.570Z,26.48
2023-02-11T18:47:05.540Z,18.45
2023-02-11T18:49:43.148Z,18.92
2023-02-11T18:52:14.998Z,20.95
2023-02-11T18:54:51.130Z,22.75
2023-02-11T18:57:23.404Z,22.80
2023-02-11T19:00:00.251Z,22.75
2023-02-11T19:02:39.224Z,20.95
2023-02-11T19:05:15.524Z,22.38
2023-02-11T19:07:57.644Z,21.25
2023-02-11T19:10:33.027Z,23.42
2023-02-11T19:13:11.909Z,19.58
2023-02-11T19:15:50.248Z,22.48
2023-02-11T19:18:19.232Z,20.58
2023-02-11T19:20:54.794Z,17.50
2023-02-11T19:23:27.006Z,21.88
2023-02-11T19:26:00.106Z,20.77
2023-02-11T19:28:44.727Z,19.88
2023-02-11T19:31:17.158Z,20.65
2023-02-11T19:33:47.053Z,21.48
2023-02-11T19:36:34.718Z,19.80
2023-02-11T19:39:20.646Z,23.63
2023-02-11T19:41:59.533Z,22.50
2023-02-11T19:45:06.369Z,22.42
2023-02-11T19:51:02.905Z,25.73
2023-02-11T19:53:34.763Z,21.13
2023-02-11T19:56:11.035Z,24.13
2023-02-11T19:58:58.442Z,24.80
2023-02-11T20:01:56.936Z,21.20
2023-02-11T20:05:03.501Z,21.60
2023-02-11T20:07:49.744Z,23.48
2023-02-11T20:10:27.928Z,26.42
2023-02-11T20:13:13.986Z,27.98
2023-02-11T20:15:51.230Z,25.73
2023-02-11T20:18:23.224Z,26.10
2023-02-11T20:20:57.117Z,25.85
2023-02-11T20:23:25.840Z,23.52
2023-02-11T20:25:57.346Z,28.13
2023-02-11T20:28:27.070Z,26.80
2023-02-11T20:31:14.904Z,25.00
2023-02-11T20:33:47.097Z,28.17
2023-02-11T20:36:29.077Z,34.58
2023-02-11T20:39:01.909Z,33.50
2023-02-11T20:41:38.269Z,36.00
2023-02-11T20:44:24.318Z,33.60
2023-02-11T20:47:01.573Z,34.72
2023-02-11T20:49:43.572Z,36.67
2023-02-11T20:52:21.861Z,30.85
2023-02-11T20:55:03.868Z,33.55
2023-02-11T20:57:47.326Z,30.98
2023-02-11T21:00:23.354Z,35.22
2023-02-11T21:03:02.475Z,35.25
2023-02-11T21:05:41.439Z,37.97
2023-02-11T21:08:13.371Z,37.50
2023-02-11T21:10:42.847Z,45.47
2023-02-11T21:13:12.510Z,36.25
2023-02-11T21:15:54.884Z,39.33
2023-02-11T21:18:37.533Z,31.40
2023-02-11T21:21:10.597Z,30.70
2023-02-11T21:23:47.941Z,29.15
2023-02-11T21:26:31.484Z,27.38
2023-02-11T21:29:16.372Z,38.10
2023-02-11T21:31:50.355Z,31.95
2023-02-11T21:34:28.150Z,32.65
2023-02-11T21:37:05.490Z,40.40
2023-02-11T21:39:46.943Z,42.38
2023-02-11T21:42:48.273Z,46.30
2023-02-11T21:45:24.690Z,40.28
2023-02-11T21:48:28.482Z,50.03
2023-02-11T21:51:02.712Z,40.38
2023-02-11T21:53:37.923Z,32.05
2023-02-11T21:56:14.353Z,32.13
2023-02-11T21:58:52.042Z,30.20
2023-02-11T22:01:29.952Z,30.13
2023-02-11T22:04:02.482Z,32.65
2023-02-11T22:06:39.067Z,35.97
2023-02-11T22:09:13.684Z,34.30
2023-02-11T22:11:49.325Z,32.00
2023-02-11T22:14:22.013Z,31.42
2023-02-11T22:16:56.887Z,32.72
2023-02-11T22:19:29.753Z,34.42
2023-02-11T22:22:00.985Z,35.08
2023-02-11T22:24:33.054Z,33.47
2023-02-11T22:27:01.823Z,30.45
2023-02-11T22:29:34.133Z,31.65
2023-02-11T22:32:16.464Z,36.95
2023-02-11T22:34:57.427Z,35.28
2023-02-11T22:37:53.000Z,38.17
2023-02-11T22:40:34.038Z,33.65
2023-02-11T22:43:15.253Z,33.60
2023-02-11T22:46:17.132Z,32.53
2023-02-11T22:48:52.663Z,32.75
2023-02-11T22:51:23.866Z,33.88
2023-02-11T22:54:02.452Z,36.78
2023-02-11T22:56:38.877Z,33.60
2023-02-11T22:59:10.249Z,31.88
2023-02-11T23:01:46.944Z,39.97
2023-02-11T23:04:23.623Z,38.78
2023-02-11T23:06:58.321Z,36.78
2023-02-11T23:09:37.387Z,43.30
2023-02-11T23:12:17.809Z,40.65
2023-02-11T23:14:47.305Z,48.08
2023-02-11T23:17:19.591Z,44.03
2023-02-11T23:19:53.787Z,50.25
2023-02-11T23:22:24.233Z,48.70
2023-02-11T23:24:54.531Z,48.95
2023-02-11T23:27:28.753Z,56.25
2023-02-11T23:30:00.540Z,58.17
2023-02-11T23:32:31.656Z,49.17
2023-02-11T23:35:08.232Z,58.38
2023-02-11T23:37:39.609Z,61.83
2023-02-11T23:40:20.488Z,53.50
2023-02-11T23:42:57.648Z,61.85
2023-02-11T23:45:32.002Z,52.47
2023-02-11T23:48:04.457Z,66.47
2023-02-11T23:50:34.608Z,61.63
2023-02-11T23:53:06.481Z,63.28
2023-02-11T23:55:44.340Z,61.03
2023-02-11T23:58:21.958Z,72.88
